createdAt,value
2023-04-10T00:01:06.972Z,101529.91
2023-04-10T00:03:33.926Z,101426.28
2023-04-10T00:06:01.017Z,101511.22
2023-04-10T00:08:27.644Z,101518.63
2023-04-10T00:10:54.562Z,101517.72
2023-04-10T00:13:21.167Z,101503.78
2023-04-10T00:15:48.173Z,101510.25
2023-04-10T00:18:14.979Z,101493.44
2023-04-10T00:20:41.984Z,101503.69
2023-04-10T00:23:08.552Z,101502.75
2023-04-10T00:25:35.088Z,101465.59
2023-04-10T00:28:01.642Z,101478.59
2023-04-10T00:30:28.364Z,101494.66
2023-04-10T00:32:54.913Z,101492.91
2023-04-10T00:35:21.891Z,101490.84
2023-04-10T00:37:50.158Z,101448.13
2023-04-10T00:40:16.942Z,101461.19
2023-04-10T00:42:43.468Z,101458.53
2023-04-10T00:45:10.615Z,101451.16
2023-04-10T00:47:37.784Z,101473.59
2023-04-10T00:50:05.380Z,101471.91
2023-04-10T00:52:32.682Z,101464.03
2023-04-10T00:54:59.348Z,101466.16
2023-04-10T00:57:27.116Z,101449.03
2023-04-10T00:59:54.027Z,101441.59
2023-04-10T01:02:20.828Z,101460.63
2023-04-10T01:04:48.084Z,101395.09
2023-04-10T01:07:23.658Z,101456.38
2023-04-10T01:09:59.178Z,101455.31
2023-04-10T01:12:25.687Z,101458.09
2023-04-10T01:15:02.595Z,101461.19
2023-04-10T01:17:32.495Z,101461.00
2023-04-10T01:20:04.774Z,101459.06
2023-04-10T01:22:36.839Z,101455.88
2023-04-10T01:25:25.699Z,101447.50
2023-04-10T01:28:19.790Z,101464.72
2023-04-10T01:30:47.998Z,101447.41
2023-04-10T01:33:19.310Z,101457.50
2023-04-10T01:35:50.074Z,101443.38
2023-04-10T01:38:18.097Z,101445.19
2023-04-10T01:40:50.088Z,101424.66
2023-04-10T01:43:17.479Z,101430.38
2023-04-10T01:45:45.132Z,101449.25
2023-04-10T01:48:11.892Z,101450.13
2023-04-10T01:50:38.829Z,101422.97
2023-04-10T01:53:06.549Z,101447.34
2023-04-10T01:55:33.701Z,101450.81
2023-04-10T01:58:01.484Z,101405.84
2023-04-10T02:00:28.244Z,101428.91
2023-04-10T02:02:55.150Z,101358.22
2023-04-10T02:05:23.087Z,101428.28
2023-04-10T02:08:00.642Z,101412.13
2023-04-10T02:10:58.543Z,101412.03
2023-04-10T02:13:26.671Z,101387.03
2023-04-10T02:15:55.888Z,101370.03
2023-04-10T02:18:22.831Z,101402.44
2023-04-10T02:20:49.488Z,101404.91
2023-04-10T02:23:17.480Z,101352.59
2023-04-10T02:25:44.182Z,101411.25
2023-04-10T02:28:10.809Z,101379.50
2023-04-10T02:30:37.370Z,101413.41
2023-04-10T02:33:04.144Z,101405.19
2023-04-10T02:35:31.009Z,101400.22
2023-04-10T02:37:57.637Z,101367.69
2023-04-10T02:40:24.596Z,101371.41
2023-04-10T02:42:51.281Z,101401.78
2023-04-10T02:45:18.089Z,101383.63
2023-04-10T02:47:44.726Z,101263.03
2023-04-10T02:50:12.012Z,101395.13
2023-04-10T02:52:38.722Z,101389.69
2023-04-10T02:55:05.982Z,101388.94
2023-04-10T02:57:32.534Z,101409.75
2023-04-10T02:59:59.055Z,101396.81
2023-04-10T03:02:26.454Z,101380.44
2023-04-10T03:04:53.715Z,101393.72
2023-04-10T03:07:20.396Z,101398.28
2023-04-10T03:09:47.086Z,101372.03
2023-04-10T03:12:13.605Z,101374.69
2023-04-10T03:14:41.445Z,101363.94
2023-04-10T03:17:07.886Z,101363.97
2023-04-10T03:19:34.389Z,101381.31
2023-04-10T03:22:00.956Z,101386.00
2023-04-10T03:24:27.467Z,101387.47
2023-04-10T03:26:54.199Z,101361.72
2023-04-10T03:29:21.496Z,101336.22
2023-04-10T03:31:48.032Z,101339.84
2023-04-10T03:34:14.552Z,101363.34
2023-04-10T03:36:41.314Z,101358.78
2023-04-10T03:39:07.829Z,101367.41
2023-04-10T03:41:34.361Z,101331.78
2023-04-10T03:44:03.277Z,101354.13
2023-04-10T03:46:29.943Z,101329.44
2023-04-10T03:48:56.798Z,101357.94
2023-04-10T03:51:24.770Z,101361.00
2023-04-10T03:53:51.478Z,101357.09
2023-04-10T03:56:18.209Z,101360.50
2023-04-10T03:58:44.690Z,101355.38
2023-04-10T04:01:11.412Z,101328.59
2023-04-10T04:03:38.065Z,101348.59
2023-04-10T04:06:05.228Z,101358.97
2023-04-10T04:08:31.761Z,101228.66
2023-04-10T04:10:58.275Z,101325.22
2023-04-10T04:13:24.974Z,101316.28
2023-04-10T04:15:51.493Z,101342.66
2023-04-10T04:18:18.026Z,101298.66
2023-04-10T04:20:44.849Z,101321.59
2023-04-10T04:23:11.722Z,101298.75
2023-04-10T04:25:38.284Z,101354.56
2023-04-10T04:28:04.933Z,101332.75
2023-04-10T04:30:31.492Z,101317.75
2023-04-10T04:32:58.286Z,101354.31
2023-04-10T04:35:25.018Z,101308.75
2023-04-10T04:37:51.581Z,101302.53
2023-04-10T04:40:18.180Z,101235.66
2023-04-10T04:42:44.681Z,101327.22
2023-04-10T04:45:11.450Z,101321.59
2023-04-10T04:47:37.932Z,101329.22
2023-04-10T04:50:04.924Z,101328.59
2023-04-10T04:52:32.125Z,101346.22
2023-04-10T04:54:58.894Z,101311.69
2023-04-10T04:57:25.497Z,101340.31
2023-04-10T04:59:52.421Z,101325.00
2023-04-10T05:02:19.084Z,101316.16
2023-04-10T05:04:45.847Z,101326.47
2023-04-10T05:07:12.424Z,101294.38
2023-04-10T05:09:39.025Z,101301.88
2023-04-10T05:12:06.025Z,101330.91
2023-04-10T05:14:32.579Z,101269.38
2023-04-10T05:17:01.502Z,101284.13
2023-04-10T05:19:29.454Z,101308.88
2023-04-10T05:21:56.407Z,101316.56
2023-04-10T05:24:22.933Z,101308.59
2023-04-10T05:26:49.425Z,101339.13
2023-04-10T05:29:16.015Z,101316.09
2023-04-10T05:31:42.606Z,101334.56
2023-04-10T05:34:09.375Z,101333.28
2023-04-10T05:36:36.689Z,101312.91
2023-04-10T05:39:03.296Z,101308.22
2023-04-10T05:41:29.782Z,101299.31
2023-04-10T05:43:56.398Z,101310.47
2023-04-10T05:46:22.951Z,101320.34
2023-04-10T05:48:49.439Z,101332.88
2023-04-10T05:51:16.185Z,101305.97
2023-04-10T05:53:42.763Z,101332.75
2023-04-10T05:56:09.407Z,101325.88
2023-04-10T05:58:36.050Z,101331.59
2023-04-10T06:01:02.607Z,101315.47
2023-04-10T06:03:30.886Z,101334.81
2023-04-10T06:05:58.377Z,101325.56
2023-04-10T06:08:25.508Z,101297.81
2023-04-10T06:10:52.176Z,101310.69
2023-04-10T06:13:19.017Z,101320.88
2023-04-10T06:15:45.965Z,101317.41
2023-04-10T06:18:12.496Z,101318.47
2023-04-10T06:20:38.977Z,101302.19
2023-04-10T06:23:06.118Z,101296.44
2023-04-10T06:25:32.788Z,101269.91
2023-04-10T06:27:59.470Z,101309.41
2023-04-10T06:30:26.305Z,101290.91
2023-04-10T06:32:53.236Z,101285.72
2023-04-10T06:35:19.953Z,101270.94
2023-04-10T06:37:46.551Z,101276.91
2023-04-10T06:40:14.101Z,101273.50
2023-04-10T06:42:41.435Z,101304.13
2023-04-10T06:45:08.568Z,101279.50
2023-04-10T06:47:35.428Z,101311.44
2023-04-10T06:50:02.508Z,101290.00
2023-04-10T06:52:29.168Z,101295.94
2023-04-10T06:54:55.908Z,101307.50
2023-04-10T06:57:22.429Z,101305.97
2023-04-10T06:59:48.901Z,101302.31
2023-04-10T07:02:15.754Z,101294.69
2023-04-10T07:04:42.526Z,101279.31
2023-04-10T07:07:12.471Z,101107.75
2023-04-10T07:09:39.902Z,101304.75
2023-04-10T07:12:06.480Z,101292.91
2023-04-10T07:14:34.914Z,101286.81
2023-04-10T07:17:01.946Z,101263.66
2023-04-10T07:19:28.772Z,101276.91
2023-04-10T07:21:55.343Z,101256.53
2023-04-10T07:24:22.142Z,101275.13
2023-04-10T07:26:48.732Z,101254.50
2023-04-10T07:29:15.910Z,101251.47
2023-04-10T07:31:42.630Z,101250.47
2023-04-10T07:34:10.734Z,101265.28
2023-04-10T07:36:37.278Z,101266.44
2023-04-10T07:39:04.001Z,101218.25
2023-04-10T07:41:31.198Z,101260.94
2023-04-10T07:43:57.797Z,101250.25
2023-04-10T07:46:24.630Z,101263.06
2023-04-10T07:48:51.375Z,101137.50
2023-04-10T07:51:17.986Z,101252.50
2023-04-10T07:53:44.545Z,101246.91
2023-04-10T07:56:18.597Z,101239.66
2023-04-10T07:58:45.917Z,101226.03
2023-04-10T08:01:12.868Z,101200.13
2023-04-10T08:03:40.867Z,101216.00
2023-04-10T08:06:09.257Z,101213.19
2023-04-10T08:08:40.245Z,101182.34
2023-04-10T08:11:23.324Z,101203.91
2023-04-10T08:13:49.929Z,101188.97
2023-04-10T08:16:16.442Z,101167.16
2023-04-10T08:18:42.980Z,101194.00
2023-04-10T08:21:09.753Z,101138.28
2023-04-10T08:23:36.196Z,101174.47
2023-04-10T08:26:02.665Z,101167.13
2023-04-10T08:28:29.170Z,101149.25
2023-04-10T08:30:55.761Z,101156.31
2023-04-10T08:33:22.374Z,101168.94
2023-04-10T08:35:51.652Z,101160.69
2023-04-10T08:38:18.288Z,101169.72
2023-04-10T08:40:44.967Z,101163.78
2023-04-10T08:43:11.808Z,101151.88
2023-04-10T08:45:41.240Z,101156.69
2023-04-10T08:48:08.320Z,101111.28
2023-04-10T08:50:38.192Z,101146.78
2023-04-10T08:53:12.156Z,101146.47
2023-04-10T08:55:39.670Z,101117.19
2023-04-10T08:58:06.737Z,101134.69
2023-04-10T09:00:34.695Z,101130.84
2023-04-10T09:03:04.842Z,101130.16
2023-04-10T09:05:31.903Z,101098.47
2023-04-10T09:07:58.517Z,101089.94
2023-04-10T09:10:24.998Z,101089.59
2023-04-10T09:12:52.489Z,101105.00
2023-04-10T09:15:19.271Z,101130.84
2023-04-10T09:17:56.537Z,101123.22
2023-04-10T09:20:25.065Z,101112.72
2023-04-10T09:22:51.753Z,101106.03
2023-04-10T09:25:34.568Z,101098.94
2023-04-10T09:28:09.520Z,101112.44
2023-04-10T09:30:39.961Z,101112.97
2023-04-10T09:33:27.990Z,101100.00
2023-04-10T09:35:57.896Z,101096.41
2023-04-10T09:38:25.859Z,101081.59
2023-04-10T09:40:54.772Z,101074.13
2023-04-10T09:43:26.106Z,101066.19
2023-04-10T09:45:57.570Z,101077.22
2023-04-10T09:48:25.380Z,101037.25
2023-04-10T09:50:52.392Z,101066.91
2023-04-10T09:53:20.797Z,101040.25
2023-04-10T09:55:48.921Z,101056.00
2023-04-10T09:58:16.462Z,101055.19
2023-04-10T10:00:47.227Z,101045.41
2023-04-10T10:03:18.614Z,101046.84
2023-04-10T10:05:48.007Z,100981.38
2023-04-10T10:08:15.781Z,101048.97
2023-04-10T10:10:47.960Z,101030.38
2023-04-10T10:13:26.614Z,101051.81
2023-04-10T10:16:02.295Z,101032.50
2023-04-10T10:18:39.487Z,101034.78
2023-04-10T10:21:09.169Z,101028.31
2023-04-10T10:23:37.419Z,101025.53
2023-04-10T10:26:09.236Z,101038.94
2023-04-10T10:28:36.606Z,101005.69
2023-04-10T10:31:03.737Z,100996.34
2023-04-10T10:33:30.892Z,101004.53
2023-04-10T10:36:00.897Z,100878.50
2023-04-10T10:38:28.295Z,100988.31
2023-04-10T10:41:14.096Z,100992.72
2023-04-10T10:43:59.859Z,100991.50
2023-04-10T10:46:37.520Z,100993.09
2023-04-10T10:49:04.172Z,100976.09
2023-04-10T10:51:51.466Z,100979.03
2023-04-10T10:54:31.569Z,100967.88
2023-04-10T10:56:59.084Z,100964.28
2023-04-10T10:59:43.992Z,100963.13
2023-04-10T11:02:18.510Z,100949.50
2023-04-10T11:04:46.946Z,100937.13
2023-04-10T11:07:14.183Z,100919.50
2023-04-10T11:09:48.562Z,100944.97
2023-04-10T11:12:22.788Z,100914.94
2023-04-10T11:15:00.340Z,100918.16
2023-04-10T11:17:53.873Z,100914.97
2023-04-10T11:20:22.171Z,100908.94
2023-04-10T11:23:21.380Z,100913.53
2023-04-10T11:25:52.900Z,100905.59
2023-04-10T11:28:31.715Z,100909.03
2023-04-10T11:31:18.553Z,100896.22
2023-04-10T11:34:04.910Z,100854.22
2023-04-10T11:36:32.245Z,100888.19
2023-04-10T11:39:14.454Z,100880.72
2023-04-10T11:41:42.637Z,100869.84
2023-04-10T11:44:10.941Z,100841.72
2023-04-10T11:46:38.905Z,100809.88
2023-04-10T11:49:07.127Z,100820.88
2023-04-10T11:51:33.926Z,100814.31
2023-04-10T11:54:08.468Z,100834.38
2023-04-10T11:56:35.575Z,100833.00
2023-04-10T11:59:07.235Z,100822.75
2023-04-10T12:01:34.082Z,100818.38
2023-04-10T12:04:01.750Z,100769.69
2023-04-10T12:06:28.996Z,100841.72
2023-04-10T12:08:55.884Z,100777.16
2023-04-10T12:11:26.071Z,100804.34
2023-04-10T12:13:54.407Z,100783.84
2023-04-10T12:16:21.769Z,100795.75
2023-04-10T12:18:49.585Z,100778.88
2023-04-10T12:21:16.410Z,100770.47
2023-04-10T12:23:42.952Z,100804.16
2023-04-10T12:26:18.920Z,100791.66
2023-04-10T12:29:01.977Z,100780.28
2023-04-10T12:31:33.774Z,100774.31
2023-04-10T12:34:03.535Z,100755.50
2023-04-10T12:36:32.143Z,100793.13
2023-04-10T12:39:00.309Z,100751.91
2023-04-10T12:41:30.506Z,100763.38
2023-04-10T12:44:11.274Z,100754.81
2023-04-10T12:46:38.278Z,100758.19
2023-04-10T12:49:15.784Z,100696.50
2023-04-10T12:51:46.809Z,100741.16
2023-04-10T12:54:35.992Z,100756.41
2023-04-10T12:57:04.260Z,100744.09
2023-04-10T12:59:31.628Z,100720.47
2023-04-10T13:01:58.563Z,100727.59
2023-04-10T13:04:25.693Z,100685.28
2023-04-10T13:06:52.982Z,100716.63
2023-04-10T13:09:19.747Z,100725.69
2023-04-10T13:11:47.741Z,100695.69
2023-04-10T13:14:15.946Z,100698.72
2023-04-10T13:16:42.570Z,100690.63
2023-04-10T13:19:09.095Z,100711.91
2023-04-10T13:21:35.762Z,100693.31
2023-04-10T13:24:02.259Z,100694.31
2023-04-10T13:26:29.144Z,100676.00
2023-04-10T13:28:56.043Z,100672.13
2023-04-10T13:31:22.955Z,100642.63
2023-04-10T13:33:49.593Z,100690.59
2023-04-10T13:36:16.288Z,100679.59
2023-04-10T13:38:43.141Z,100666.06
2023-04-10T13:41:09.682Z,100649.81
2023-04-10T13:43:36.962Z,100648.16
2023-04-10T13:46:03.680Z,100646.59
2023-04-10T13:48:40.085Z,100587.00
2023-04-10T13:51:08.352Z,100641.31
2023-04-10T13:53:34.910Z,100593.53
2023-04-10T13:56:01.849Z,100628.53
2023-04-10T13:58:31.837Z,100623.63
2023-04-10T14:00:58.880Z,100625.19
2023-04-10T14:03:25.828Z,100627.38
2023-04-10T14:05:53.132Z,100604.66
2023-04-10T14:08:20.256Z,100603.91
2023-04-10T14:10:50.733Z,100595.69
2023-04-10T14:13:18.358Z,100595.19
2023-04-10T14:15:45.207Z,100566.06
2023-04-10T14:18:12.252Z,100587.94
2023-04-10T14:20:39.123Z,100581.28
2023-04-10T14:23:05.781Z,100585.03
2023-04-10T14:25:32.279Z,100588.13
2023-04-10T14:27:59.356Z,100560.53
2023-04-10T14:30:30.715Z,100549.66
2023-04-10T14:32:57.376Z,100509.84
2023-04-10T14:35:24.331Z,100548.78
2023-04-10T14:37:50.949Z,100517.88
2023-04-10T14:40:17.782Z,100563.78
2023-04-10T14:42:44.346Z,100549.66
2023-04-10T14:45:11.121Z,100549.47
2023-04-10T14:47:38.072Z,100498.34
2023-04-10T14:50:05.055Z,100530.81
2023-04-10T14:52:31.680Z,100500.72
2023-04-10T14:54:58.178Z,100508.81
2023-04-10T14:57:24.797Z,100474.75
2023-04-10T14:59:51.420Z,100468.66
2023-04-10T15:02:18.049Z,100489.00
2023-04-10T15:04:44.796Z,100470.31
2023-04-10T15:07:11.320Z,100450.16
2023-04-10T15:09:37.943Z,100497.06
2023-04-10T15:12:04.577Z,100475.69
2023-04-10T15:14:31.137Z,100469.69
2023-04-10T15:16:57.706Z,100488.75
2023-04-10T15:19:24.357Z,100476.28
2023-04-10T15:21:50.934Z,100479.03
2023-04-10T15:24:17.897Z,100480.13
2023-04-10T15:26:47.756Z,100480.84
2023-04-10T15:29:14.462Z,100453.78
2023-04-10T15:31:41.332Z,100481.91
2023-04-10T15:34:09.110Z,100460.63
2023-04-10T15:36:35.708Z,100444.50
2023-04-10T15:39:03.747Z,100436.91
2023-04-10T15:41:33.321Z,100428.41
2023-04-10T15:43:59.858Z,100437.16
2023-04-10T15:46:27.181Z,100454.09
2023-04-10T15:48:55.990Z,100420.50
2023-04-10T15:51:22.533Z,100454.75
2023-04-10T15:53:49.011Z,100436.00
2023-04-10T15:56:16.122Z,100444.44
2023-04-10T15:58:43.279Z,100418.09
2023-04-10T16:01:09.823Z,100442.16
2023-04-10T16:03:36.833Z,100392.56
2023-04-10T16:06:03.780Z,100439.59
2023-04-10T16:08:30.555Z,100420.06
2023-04-10T16:10:57.050Z,100430.09
2023-04-10T16:13:23.584Z,100395.88
2023-04-10T16:15:50.467Z,100407.25
2023-04-10T16:18:18.194Z,100395.03
2023-04-10T16:20:44.668Z,100385.44
2023-04-10T16:23:11.372Z,100400.44
2023-04-10T16:25:38.340Z,100397.91
2023-04-10T16:28:07.777Z,100372.63
2023-04-10T16:30:35.562Z,100379.63
2023-04-10T16:33:03.164Z,100338.97
2023-04-10T16:35:29.905Z,100396.06
2023-04-10T16:37:56.503Z,100354.56
2023-04-10T16:40:23.184Z,100387.84
2023-04-10T16:42:49.756Z,100319.84
2023-04-10T16:45:16.263Z,100337.28
2023-04-10T16:47:44.645Z,100368.09
2023-04-10T16:50:11.483Z,100365.94
2023-04-10T16:52:38.275Z,100355.22
2023-04-10T16:55:05.312Z,100359.28
2023-04-10T16:57:32.129Z,100318.19
2023-04-10T17:00:01.944Z,100343.84
2023-04-10T17:02:30.330Z,100352.38
2023-04-10T17:04:57.174Z,100330.75
2023-04-10T17:07:24.057Z,100319.19
2023-04-10T17:09:50.633Z,100324.50
2023-04-10T17:12:17.345Z,100317.78
2023-04-10T17:14:44.333Z,100327.09
2023-04-10T17:17:11.050Z,100308.28
2023-04-10T17:19:38.495Z,100316.88
2023-04-10T17:22:06.143Z,100288.53
2023-04-10T17:24:32.699Z,100304.69
2023-04-10T17:27:00.878Z,100264.84
2023-04-10T17:29:27.432Z,100293.84
2023-04-10T17:31:54.064Z,100314.03
2023-04-10T17:34:20.801Z,100282.44
2023-04-10T17:36:49.278Z,100300.34
2023-04-10T17:39:15.779Z,100263.53
2023-04-10T17:41:42.349Z,100242.06
2023-04-10T17:44:08.901Z,100288.78
2023-04-10T17:46:35.638Z,100266.47
2023-04-10T17:49:02.766Z,100263.69
2023-04-10T17:51:29.497Z,100266.66
2023-04-10T17:53:56.002Z,100267.31
2023-04-10T17:56:22.565Z,100241.69
2023-04-10T17:58:49.355Z,100258.56
2023-04-10T18:01:23.884Z,100244.16
2023-04-10T18:03:50.903Z,100253.94
2023-04-10T18:06:18.659Z,100240.47
2023-04-10T18:08:45.303Z,100262.03
2023-04-10T18:11:11.964Z,100169.94
2023-04-10T18:13:38.587Z,100205.94
2023-04-10T18:16:05.671Z,100256.94
2023-04-10T18:18:33.483Z,100275.72
2023-04-10T18:21:04.069Z,100275.69
2023-04-10T18:23:31.124Z,100288.75
2023-04-10T18:25:57.658Z,100276.25
2023-04-10T18:28:24.493Z,100281.41
2023-04-10T18:30:54.044Z,100267.53
2023-04-10T18:33:24.007Z,100284.97
2023-04-10T18:35:52.738Z,100288.88
2023-04-10T18:38:19.515Z,100305.44
2023-04-10T18:40:46.076Z,100308.53
2023-04-10T18:43:12.668Z,100311.91
2023-04-10T18:45:40.421Z,100317.91
2023-04-10T18:48:06.977Z,100317.84
2023-04-10T18:50:40.311Z,100320.56
2023-04-10T18:53:07.106Z,100314.34
2023-04-10T18:55:33.738Z,100292.59
2023-04-10T18:58:00.377Z,100291.03
2023-04-10T19:00:26.952Z,100267.09
2023-04-10T19:02:54.169Z,100271.69
2023-04-10T19:05:21.019Z,100284.13
2023-04-10T19:08:00.804Z,100313.78
2023-04-10T19:10:30.583Z,100138.34
2023-04-10T19:12:57.319Z,100287.56
2023-04-10T19:15:24.704Z,100279.34
2023-04-10T19:17:54.697Z,100281.78
2023-04-10T19:20:51.084Z,100292.38
2023-04-10T19:23:09.438Z,100285.47
2023-04-10T19:25:36.182Z,100276.94
2023-04-10T19:28:03.135Z,100286.31
2023-04-10T19:30:29.796Z,100210.00
2023-04-10T19:32:56.525Z,100279.50
2023-04-10T19:35:23.138Z,100260.44
2023-04-10T19:37:49.940Z,100270.03
2023-04-10T19:40:18.423Z,100246.81
2023-04-10T19:42:45.332Z,100263.38
2023-04-10T19:45:12.365Z,100272.50
2023-04-10T19:47:39.046Z,100294.84
2023-04-10T19:50:06.026Z,100282.63
2023-04-10T19:52:32.573Z,100292.16
2023-04-10T19:54:59.460Z,100282.84
2023-04-10T19:57:26.024Z,100276.53
2023-04-10T19:59:52.695Z,100300.16
2023-04-10T20:02:19.425Z,100294.72
2023-04-10T20:04:48.574Z,100280.25
2023-04-10T20:07:15.677Z,100294.88
2023-04-10T20:09:42.275Z,100282.66
2023-04-10T20:12:09.266Z,100304.66
2023-04-10T20:14:35.941Z,100320.09
2023-04-10T20:17:02.477Z,100315.72
2023-04-10T20:19:29.078Z,100309.84
2023-04-10T20:21:55.848Z,100290.09
2023-04-10T20:24:22.607Z,100331.91
2023-04-10T20:26:49.105Z,100301.44
2023-04-10T20:29:15.749Z,100324.75
2023-04-10T20:31:42.394Z,100312.88
2023-04-10T20:34:09.003Z,100274.03
2023-04-10T20:36:35.657Z,100298.03
2023-04-10T20:39:02.333Z,100315.84
2023-04-10T20:41:29.136Z,100301.19
2023-04-10T20:43:57.385Z,100311.97
2023-04-10T20:46:26.957Z,100322.91
2023-04-10T20:48:59.136Z,100335.56
2023-04-10T20:51:27.353Z,100295.53
2023-04-10T20:53:54.037Z,100318.38
2023-04-10T20:56:24.850Z,100308.38
2023-04-10T20:58:53.936Z,100325.31
2023-04-10T21:01:20.760Z,100316.97
2023-04-10T21:03:47.506Z,100328.75
2023-04-10T21:06:15.360Z,100329.78
2023-04-10T21:08:41.913Z,100298.72
2023-04-10T21:11:08.560Z,100308.88
2023-04-10T21:13:37.093Z,100275.28
2023-04-10T21:16:05.248Z,100307.00
2023-04-10T21:18:31.837Z,100238.94
2023-04-10T21:20:58.388Z,100265.22
2023-04-10T21:23:25.029Z,100288.50
2023-04-10T21:25:52.725Z,100273.25
2023-04-10T21:28:19.257Z,100272.69
2023-04-10T21:30:45.883Z,100160.72
2023-04-10T21:33:12.677Z,100279.38
2023-04-10T21:35:42.630Z,100296.75
2023-04-10T21:38:09.473Z,100297.03
2023-04-10T21:40:35.977Z,100278.06
2023-04-10T21:43:02.883Z,100288.13
2023-04-10T21:45:30.550Z,100335.03
2023-04-10T21:47:57.131Z,100306.69
2023-04-10T21:50:24.666Z,100280.34
2023-04-10T21:52:51.332Z,100264.06
2023-04-10T21:55:18.024Z,100240.69
2023-04-10T21:57:44.582Z,100268.56
2023-04-10T22:00:14.329Z,100264.97
2023-04-10T22:02:41.108Z,100226.19
2023-04-10T22:05:08.058Z,100174.97
2023-04-10T22:07:34.634Z,100207.53
2023-04-10T22:10:01.244Z,100190.19
2023-04-10T22:12:27.751Z,100211.88
2023-04-10T22:14:54.328Z,100179.53
2023-04-10T22:17:21.310Z,100151.13
2023-04-10T22:19:47.997Z,100163.66
2023-04-10T22:22:14.988Z,100101.84
2023-04-10T22:24:41.545Z,100130.38
2023-04-10T22:27:08.161Z,100163.09
2023-04-10T22:29:35.561Z,100230.78
2023-04-10T22:32:02.146Z,100167.47
2023-04-10T22:34:28.835Z,100207.34
2023-04-10T22:36:55.353Z,100172.84
2023-04-10T22:39:22.091Z,100246.91
2023-04-10T22:41:48.706Z,100222.22
2023-04-10T22:44:15.343Z,100175.97
2023-04-10T22:46:42.046Z,100168.38
2023-04-10T22:49:08.725Z,100166.34
2023-04-10T22:51:35.318Z,100186.91
2023-04-10T22:54:02.034Z,100143.88
2023-04-10T22:56:29.377Z,100136.75
2023-04-10T22:58:56.005Z,100138.25
2023-04-10T23:01:22.747Z,100091.81
2023-04-10T23:03:53.500Z,100093.91
2023-04-10T23:06:20.185Z,100104.75
2023-04-10T23:08:46.953Z,100129.22
2023-04-10T23:11:13.528Z,100104.13
2023-04-10T23:13:42.559Z,100107.97
2023-04-10T23:16:09.704Z,100101.47
2023-04-10T23:18:37.513Z,100111.00
2023-04-10T23:21:07.630Z,100119.88
2023-04-10T23:23:34.251Z,100094.94
2023-04-10T23:26:01.151Z,100127.53
2023-04-10T23:28:28.420Z,100152.50
2023-04-10T23:30:55.314Z,100149.09
2023-04-10T23:33:21.988Z,100122.75
2023-04-10T23:35:48.597Z,100126.97
2023-04-10T23:38:15.423Z,100135.97
2023-04-10T23:40:42.083Z,100162.34
2023-04-10T23:43:08.597Z,100150.53
2023-04-10T23:45:35.405Z,100096.66
2023-04-10T23:48:01.963Z,100148.50
2023-04-10T23:50:28.553Z,100150.53
2023-04-10T23:52:55.336Z,100141.56
2023-04-10T23:55:22.348Z,100116.19
2023-04-10T23:57:48.814Z,100160.19
